sensor_id;sensor_type;location;lat;lon;timestamp;temperature;humidity
26947;DHT22;14501;52.282;10.560;2024-02-26T00:00:39;0.30;99.90
26947;DHT22;14501;52.282;10.560;2024-02-26T00:03:04;0.20;99.90
26947;DHT22;14501;52.282;10.560;2024-02-26T00:07:56;0.20;99.90
26947;DHT22;14501;52.282;10.560;2024-02-26T00:10:22;0.20;99.90
26947;DHT22;14501;52.282;10.560;2024-02-26T00:15:14;0.30;99.90
26947;DHT22;14501;52.282;10.560;2024-02-26T00:20:06;0.20;99.90
26947;DHT22;14501;52.282;10.560;2024-02-26T00:22:35;0.30;99.90
26947;DHT22;14501;52.282;10.560;2024-02-26T00:25:01;0.30;99.90
26947;DHT22;14501;52.282;10.560;2024-02-26T00:29:52;0.40;99.90
26947;DHT22;14501;52.282;10.560;2024-02-26T00:34:44;0.50;99.90
26947;DHT22;14501;52.282;10.560;2024-02-26T00:42:01;0.60;99.90
26947;DHT22;14501;52.282;10.560;2024-02-26T00:44:28;0.70;99.90
26947;DHT22;14501;52.282;10.560;2024-02-26T00:46:53;0.30;99.90
26947;DHT22;14501;52.282;10.560;2024-02-26T00:49:19;0.60;99.90
26947;DHT22;14501;52.282;10.560;2024-02-26T00:54:10;0.60;99.90
26947;DHT22;14501;52.282;10.560;2024-02-26T00:59:02;0.60;99.90
26947;DHT22;14501;52.282;10.560;2024-02-26T01:03:53;0.60;99.90
26947;DHT22;14501;52.282;10.560;2024-02-26T01:11:11;0.50;99.90
26947;DHT22;14501;52.282;10.560;2024-02-26T01:16:03;0.50;99.90
26947;DHT22;14501;52.282;10.560;2024-02-26T01:18:29;0.30;99.90
26947;DHT22;14501;52.282;10.560;2024-02-26T01:23:21;0.50;99.90
26947;DHT22;14501;52.282;10.560;2024-02-26T01:25:46;0.40;99.90
26947;DHT22;14501;52.282;10.560;2024-02-26T01:30:38;0.50;99.90
26947;DHT22;14501;52.282;10.560;2024-02-26T01:35:29;0.50;99.90
26947;DHT22;14501;52.282;10.560;2024-02-26T01:40:22;0.40;99.90
26947;DHT22;14501;52.282;10.560;2024-02-26T01:42:47;0.20;99.90
26947;DHT22;14501;52.282;10.560;2024-02-26T01:45:17;0.30;99.90
26947;DHT22;14501;52.282;10.560;2024-02-26T01:47:52;0.20;99.90
26947;DHT22;14501;52.282;10.560;2024-02-26T01:50:19;0.20;99.90
26947;DHT22;14501;52.282;10.560;2024-02-26T01:52:46;0.00;99.90
26947;DHT22;14501;52.282;10.560;2024-02-26T01:55:13;0.00;99.90
26947;DHT22;14501;52.282;10.560;2024-02-26T01:57:43;0.00;99.90
26947;DHT22;14501;52.282;10.560;2024-02-26T02:00:09;0.00;99.90
26947;DHT22;14501;52.282;10.560;2024-02-26T02:02:35;-0.10;99.90
26947;DHT22;14501;52.282;10.560;2024-02-26T02:05:02;-0.10;99.90
26947;DHT22;14501;52.282;10.560;2024-02-26T02:07:28;-0.20;99.90
26947;DHT22;14501;52.282;10.560;2024-02-26T02:09:54;-0.20;99.90
26947;DHT22;14501;52.282;10.560;2024-02-26T02:12:20;-0.40;99.90
26947;DHT22;14501;52.282;10.560;2024-02-26T02:14:47;-0.50;99.90
26947;DHT22;14501;52.282;10.560;2024-02-26T02:19:38;-0.30;99.90
26947;DHT22;14501;52.282;10.560;2024-02-26T02:22:04;-0.50;99.90
26947;DHT22;14501;52.282;10.560;2024-02-26T02:29:22;-0.30;99.90
26947;DHT22;14501;52.282;10.560;2024-02-26T02:31:47;-0.40;99.90
26947;DHT22;14501;52.282;10.560;2024-02-26T02:36:52;-0.40;99.90
26947;DHT22;14501;52.282;10.560;2024-02-26T02:39:18;-0.40;99.90
26947;DHT22;14501;52.282;10.560;2024-02-26T02:41:44;-0.50;99.90
26947;DHT22;14501;52.282;10.560;2024-02-26T02:44:09;-0.40;99.90
26947;DHT22;14501;52.282;10.560;2024-02-26T02:46:35;-0.40;99.90
26947;DHT22;14501;52.282;10.560;2024-02-26T02:51:27;-0.40;99.90
26947;DHT22;14501;52.282;10.560;2024-02-26T02:56:19;-0.40;99.90
26947;DHT22;14501;52.282;10.560;2024-02-26T03:01:11;-0.40;99.90
26947;DHT22;14501;52.282;10.560;2024-02-26T03:03:38;-0.40;99.90
26947;DHT22;14501;52.282;10.560;2024-02-26T03:06:03;-0.50;99.90
26947;DHT22;14501;52.282;10.560;2024-02-26T03:10:55;-0.30;99.90
26947;DHT22;14501;52.282;10.560;2024-02-26T03:15:47;-0.20;99.90
26947;DHT22;14501;52.282;10.560;2024-02-26T03:20:38;-0.10;99.90
26947;DHT22;14501;52.282;10.560;2024-02-26T03:25:30;-0.20;99.90
26947;DHT22;14501;52.282;10.560;2024-02-26T03:27:55;-0.30;99.90
26947;DHT22;14501;52.282;10.560;2024-02-26T03:30:21;-0.20;99.90
26947;DHT22;14501;52.282;10.560;2024-02-26T03:35:13;-0.10;99.90
26947;DHT22;14501;52.282;10.560;2024-02-26T03:37:39;-0.10;99.90
26947;DHT22;14501;52.282;10.560;2024-02-26T03:40:05;-0.10;99.90
26947;DHT22;14501;52.282;10.560;2024-02-26T03:42:31;0.20;99.90
26947;DHT22;14501;52.282;10.560;2024-02-26T03:44:56;3.10;99.90
26947;DHT22;14501;52.282;10.560;2024-02-26T03:49:48;-0.10;99.90
26947;DHT22;14501;52.282;10.560;2024-02-26T03:52:14;-0.20;99.90
26947;DHT22;14501;52.282;10.560;2024-02-26T03:54:40;-0.30;99.90
26947;DHT22;14501;52.282;10.560;2024-02-26T03:59:32;-0.10;99.90
26947;DHT22;14501;52.282;10.560;2024-02-26T04:04:23;-0.10;99.90
26947;DHT22;14501;52.282;10.560;2024-02-26T04:11:41;-0.10;99.90
26947;DHT22;14501;52.282;10.560;2024-02-26T04:14:08;-0.10;99.90
26947;DHT22;14501;52.282;10.560;2024-02-26T04:16:35;-0.10;99.90
26947;DHT22;14501;52.282;10.560;2024-02-26T04:19:03;0.00;99.90
26947;DHT22;14501;52.282;10.560;2024-02-26T04:21:28;0.00;99.90
26947;DHT22;14501;52.282;10.560;2024-02-26T04:26:21;0.00;99.90
26947;DHT22;14501;52.282;10.560;2024-02-26T04:28:47;0.00;99.90
26947;DHT22;14501;52.282;10.560;2024-02-26T04:33:38;0.10;99.90
26947;DHT22;14501;52.282;10.560;2024-02-26T04:36:04;3.50;99.90
26947;DHT22;14501;52.282;10.560;2024-02-26T04:38:30;0.40;99.90
26947;DHT22;14501;52.282;10.560;2024-02-26T04:43:21;0.20;99.90
26947;DHT22;14501;52.282;10.560;2024-02-26T04:48:13;0.50;99.90
26947;DHT22;14501;52.282;10.560;2024-02-26T04:50:39;0.50;99.90
26947;DHT22;14501;52.282;10.560;2024-02-26T04:53:04;0.40;99.90
26947;DHT22;14501;52.282;10.560;2024-02-26T04:55:30;0.50;99.90
26947;DHT22;14501;52.282;10.560;2024-02-26T04:57:55;0.50;99.90
26947;DHT22;14501;52.282;10.560;2024-02-26T05:00:21;0.70;99.90
26947;DHT22;14501;52.282;10.560;2024-02-26T05:05:13;0.80;99.90
26947;DHT22;14501;52.282;10.560;2024-02-26T05:07:42;1.30;99.90
26947;DHT22;14501;52.282;10.560;2024-02-26T05:10:09;0.80;99.90
26947;DHT22;14501;52.282;10.560;2024-02-26T05:12:34;0.80;99.90
26947;DHT22;14501;52.282;10.560;2024-02-26T05:15:01;0.80;99.90
26947;DHT22;14501;52.282;10.560;2024-02-26T05:17:27;3.20;99.90
26947;DHT22;14501;52.282;10.560;2024-02-26T05:19:53;0.90;99.90
26947;DHT22;14501;52.282;10.560;2024-02-26T05:22:19;0.90;99.90
26947;DHT22;14501;52.282;10.560;2024-02-26T05:24:44;0.80;99.90
26947;DHT22;14501;52.282;10.560;2024-02-26T05:27:10;0.90;99.90
26947;DHT22;14501;52.282;10.560;2024-02-26T05:29:36;1.00;99.90
26947;DHT22;14501;52.282;10.560;2024-02-26T05:32:01;1.00;99.90
26947;DHT22;14501;52.282;10.560;2024-02-26T05:34:27;1.20;99.90
26947;DHT22;14501;52.282;10.560;2024-02-26T05:39:18;1.20;99.90
26947;DHT22;14501;52.282;10.560;2024-02-26T05:41:44;1.10;99.90
26947;DHT22;14501;52.282;10.560;2024-02-26T05:44:11;1.10;99.90
26947;DHT22;14501;52.282;10.560;2024-02-26T05:46:37;1.10;99.90
26947;DHT22;14501;52.282;10.560;2024-02-26T05:49:02;1.30;99.90
26947;DHT22;14501;52.282;10.560;2024-02-26T05:51:28;1.50;99.90
26947;DHT22;14501;52.282;10.560;2024-02-26T05:53:54;1.30;99.90
26947;DHT22;14501;52.282;10.560;2024-02-26T05:56:23;1.40;99.90
26947;DHT22;14501;52.282;10.560;2024-02-26T05:58:49;1.80;99.90
26947;DHT22;14501;52.282;10.560;2024-02-26T06:01:17;0.70;99.90
26947;DHT22;14501;52.282;10.560;2024-02-26T06:03:43;1.70;99.90
26947;DHT22;14501;52.282;10.560;2024-02-26T06:06:10;1.80;99.90
26947;DHT22;14501;52.282;10.560;2024-02-26T06:08:36;1.90;99.90
26947;DHT22;14501;52.282;10.560;2024-02-26T06:11:06;1.80;99.90
26947;DHT22;14501;52.282;10.560;2024-02-26T06:13:32;2.00;99.90
26947;DHT22;14501;52.282;10.560;2024-02-26T06:15:58;1.90;99.90
26947;DHT22;14501;52.282;10.560;2024-02-26T06:18:23;2.10;99.90
26947;DHT22;14501;52.282;10.560;2024-02-26T06:20:49;2.20;99.90
26947;DHT22;14501;52.282;10.560;2024-02-26T06:23:16;2.70;99.90
26947;DHT22;14501;52.282;10.560;2024-02-26T06:25:42;2.40;99.90
26947;DHT22;14501;52.282;10.560;2024-02-26T06:28:08;2.50;99.90
26947;DHT22;14501;52.282;10.560;2024-02-26T06:30:34;2.50;99.90
26947;DHT22;14501;52.282;10.560;2024-02-26T06:32:59;2.50;99.90
26947;DHT22;14501;52.282;10.560;2024-02-26T06:35:25;2.20;99.90
26947;DHT22;14501;52.282;10.560;2024-02-26T06:37:51;2.50;99.90
26947;DHT22;14501;52.282;10.560;2024-02-26T06:40:21;2.60;99.90
26947;DHT22;14501;52.282;10.560;2024-02-26T06:42:46;2.60;99.90
26947;DHT22;14501;52.282;10.560;2024-02-26T06:45:12;2.70;99.90
26947;DHT22;14501;52.282;10.560;2024-02-26T06:47:38;2.70;99.90
26947;DHT22;14501;52.282;10.560;2024-02-26T06:50:03;2.80;99.90
26947;DHT22;14501;52.282;10.560;2024-02-26T06:52:29;2.80;99.90
26947;DHT22;14501;52.282;10.560;2024-02-26T06:54:55;2.90;99.90
26947;DHT22;14501;52.282;10.560;2024-02-26T06:57:20;2.90;99.90
26947;DHT22;14501;52.282;10.560;2024-02-26T06:59:46;3.00;99.90
26947;DHT22;14501;52.282;10.560;2024-02-26T07:02:13;3.00;99.90
26947;DHT22;14501;52.282;10.560;2024-02-26T07:04:39;3.00;99.90
26947;DHT22;14501;52.282;10.560;2024-02-26T07:07:06;3.00;99.90
26947;DHT22;14501;52.282;10.560;2024-02-26T07:09:32;3.10;99.90
26947;DHT22;14501;52.282;10.560;2024-02-26T07:11:57;3.60;99.90
26947;DHT22;14501;52.282;10.560;2024-02-26T07:14:23;3.20;99.90
26947;DHT22;14501;52.282;10.560;2024-02-26T07:16:50;3.30;99.90
26947;DHT22;14501;52.282;10.560;2024-02-26T07:19:15;3.30;99.90
26947;DHT22;14501;52.282;10.560;2024-02-26T07:21:41;3.70;99.90
26947;DHT22;14501;52.282;10.560;2024-02-26T07:24:07;3.50;99.90
26947;DHT22;14501;52.282;10.560;2024-02-26T07:26:32;3.60;99.90
26947;DHT22;14501;52.282;10.560;2024-02-26T07:28:58;3.90;99.90
26947;DHT22;14501;52.282;10.560;2024-02-26T07:31:24;3.90;99.90
26947;DHT22;14501;52.282;10.560;2024-02-26T07:33:49;4.00;99.90
26947;DHT22;14501;52.282;10.560;2024-02-26T07:36:15;4.00;99.90
26947;DHT22;14501;52.282;10.560;2024-02-26T07:38:40;4.30;99.90
26947;DHT22;14501;52.282;10.560;2024-02-26T07:41:06;4.30;99.90
26947;DHT22;14501;52.282;10.560;2024-02-26T07:43:32;4.40;99.90
26947;DHT22;14501;52.282;10.560;2024-02-26T07:45:58;5.10;99.90
26947;DHT22;14501;52.282;10.560;2024-02-26T07:48:23;4.60;99.90
26947;DHT22;14501;52.282;10.560;2024-02-26T07:50:49;4.60;99.90
26947;DHT22;14501;52.282;10.560;2024-02-26T07:53:15;5.30;99.90
26947;DHT22;14501;52.282;10.560;2024-02-26T07:55:40;4.80;99.90
26947;DHT22;14501;52.282;10.560;2024-02-26T07:58:06;4.80;99.90
26947;DHT22;14501;52.282;10.560;2024-02-26T08:00:32;4.80;99.90
26947;DHT22;14501;52.282;10.560;2024-02-26T08:02:57;4.80;99.90
26947;DHT22;14501;52.282;10.560;2024-02-26T08:05:23;4.90;99.90
26947;DHT22;14501;52.282;10.560;2024-02-26T08:07:50;5.40;99.90
26947;DHT22;14501;52.282;10.560;2024-02-26T08:10:16;5.10;99.90
26947;DHT22;14501;52.282;10.560;2024-02-26T08:12:41;5.20;99.90
26947;DHT22;14501;52.282;10.560;2024-02-26T08:15:07;5.20;99.90
26947;DHT22;14501;52.282;10.560;2024-02-26T08:17:33;5.30;99.90
26947;DHT22;14501;52.282;10.560;2024-02-26T08:19:59;6.20;99.90
26947;DHT22;14501;52.282;10.560;2024-02-26T08:22:25;5.60;99.90
26947;DHT22;14501;52.282;10.560;2024-02-26T08:24:51;5.60;99.90
26947;DHT22;14501;52.282;10.560;2024-02-26T08:27:17;5.50;99.90
26947;DHT22;14501;52.282;10.560;2024-02-26T08:29:42;5.40;99.90
26947;DHT22;14501;52.282;10.560;2024-02-26T08:32:08;5.60;99.90
26947;DHT22;14501;52.282;10.560;2024-02-26T08:34:34;5.70;99.90
26947;DHT22;14501;52.282;10.560;2024-02-26T08:37:00;5.70;99.90
26947;DHT22;14501;52.282;10.560;2024-02-26T08:39:25;5.80;99.90
26947;DHT22;14501;52.282;10.560;2024-02-26T08:41:51;5.90;99.90
26947;DHT22;14501;52.282;10.560;2024-02-26T08:44:17;6.10;99.90
26947;DHT22;14501;52.282;10.560;2024-02-26T08:46:42;6.90;99.90
26947;DHT22;14501;52.282;10.560;2024-02-26T08:49:08;6.30;99.90
26947;DHT22;14501;52.282;10.560;2024-02-26T08:51:34;6.10;99.90
26947;DHT22;14501;52.282;10.560;2024-02-26T08:53:59;6.30;99.90
26947;DHT22;14501;52.282;10.560;2024-02-26T08:56:25;6.20;99.90
26947;DHT22;14501;52.282;10.560;2024-02-26T08:58:50;6.40;99.90
26947;DHT22;14501;52.282;10.560;2024-02-26T09:01:19;6.30;99.90
26947;DHT22;14501;52.282;10.560;2024-02-26T09:03:44;6.20;99.90
26947;DHT22;14501;52.282;10.560;2024-02-26T09:06:10;5.80;99.90
26947;DHT22;14501;52.282;10.560;2024-02-26T09:08:37;6.10;99.90
26947;DHT22;14501;52.282;10.560;2024-02-26T09:11:03;6.00;99.90
26947;DHT22;14501;52.282;10.560;2024-02-26T09:13:29;6.20;99.90
26947;DHT22;14501;52.282;10.560;2024-02-26T09:15:55;6.10;99.90
26947;DHT22;14501;52.282;10.560;2024-02-26T09:18:20;6.30;99.90
26947;DHT22;14501;52.282;10.560;2024-02-26T09:20:46;6.30;99.90
26947;DHT22;14501;52.282;10.560;2024-02-26T09:23:12;6.30;99.90
26947;DHT22;14501;52.282;10.560;2024-02-26T09:25:37;6.40;99.90
26947;DHT22;14501;52.282;10.560;2024-02-26T09:28:03;6.40;99.90
26947;DHT22;14501;52.282;10.560;2024-02-26T09:30:29;6.50;99.90
26947;DHT22;14501;52.282;10.560;2024-02-26T09:32:55;8.00;99.90
26947;DHT22;14501;52.282;10.560;2024-02-26T09:35:20;6.50;99.90
26947;DHT22;14501;52.282;10.560;2024-02-26T09:37:46;7.50;99.90
26947;DHT22;14501;52.282;10.560;2024-02-26T09:40:14;6.50;99.90
26947;DHT22;14501;52.282;10.560;2024-02-26T09:42:44;6.70;99.90
26947;DHT22;14501;52.282;10.560;2024-02-26T09:45:12;6.90;99.90
26947;DHT22;14501;52.282;10.560;2024-02-26T09:47:42;7.00;99.90
26947;DHT22;14501;52.282;10.560;2024-02-26T09:50:09;7.00;99.90
26947;DHT22;14501;52.282;10.560;2024-02-26T09:52:37;7.20;99.90
26947;DHT22;14501;52.282;10.560;2024-02-26T09:55:04;7.10;99.90
26947;DHT22;14501;52.282;10.560;2024-02-26T09:57:31;7.30;99.90
26947;DHT22;14501;52.282;10.560;2024-02-26T09:59:59;7.40;99.90
26947;DHT22;14501;52.282;10.560;2024-02-26T10:02:29;7.70;99.90
26947;DHT22;14501;52.282;10.560;2024-02-26T10:04:56;7.50;99.90
26947;DHT22;14501;52.282;10.560;2024-02-26T10:07:23;7.60;99.90
26947;DHT22;14501;52.282;10.560;2024-02-26T10:09:49;7.50;99.90
26947;DHT22;14501;52.282;10.560;2024-02-26T10:12:15;7.60;99.90
26947;DHT22;14501;52.282;10.560;2024-02-26T10:14:42;8.70;99.90
26947;DHT22;14501;52.282;10.560;2024-02-26T10:17:08;9.10;99.90
26947;DHT22;14501;52.282;10.560;2024-02-26T10:19:34;7.50;99.90
26947;DHT22;14501;52.282;10.560;2024-02-26T10:22:00;8.50;99.90
26947;DHT22;14501;52.282;10.560;2024-02-26T10:24:29;7.50;99.90
26947;DHT22;14501;52.282;10.560;2024-02-26T10:26:56;7.60;99.90
26947;DHT22;14501;52.282;10.560;2024-02-26T10:29:23;7.50;99.90
26947;DHT22;14501;52.282;10.560;2024-02-26T10:31:51;6.80;99.90
26947;DHT22;14501;52.282;10.560;2024-02-26T10:34:17;7.40;99.90
26947;DHT22;14501;52.282;10.560;2024-02-26T10:36:43;7.50;99.90
26947;DHT22;14501;52.282;10.560;2024-02-26T10:39:11;7.50;99.90
26947;DHT22;14501;52.282;10.560;2024-02-26T10:41:37;7.40;99.90
26947;DHT22;14501;52.282;10.560;2024-02-26T10:44:04;8.10;99.90
26947;DHT22;14501;52.282;10.560;2024-02-26T10:46:29;6.90;99.90
26947;DHT22;14501;52.282;10.560;2024-02-26T10:48:56;7.50;99.90
26947;DHT22;14501;52.282;10.560;2024-02-26T10:51:29;7.50;99.90
26947;DHT22;14501;52.282;10.560;2024-02-26T10:53:57;7.50;99.90
26947;DHT22;14501;52.282;10.560;2024-02-26T10:56:28;7.50;99.90
26947;DHT22;14501;52.282;10.560;2024-02-26T10:58:55;7.50;99.90
26947;DHT22;14501;52.282;10.560;2024-02-26T11:01:22;7.50;99.90
26947;DHT22;14501;52.282;10.560;2024-02-26T11:03:51;7.60;99.90
26947;DHT22;14501;52.282;10.560;2024-02-26T11:06:23;7.60;99.90
26947;DHT22;14501;52.282;10.560;2024-02-26T11:08:51;7.60;99.90
26947;DHT22;14501;52.282;10.560;2024-02-26T11:11:18;7.70;99.90
26947;DHT22;14501;52.282;10.560;2024-02-26T11:13:47;7.80;99.90
26947;DHT22;14501;52.282;10.560;2024-02-26T11:16:18;7.90;99.90
26947;DHT22;14501;52.282;10.560;2024-02-26T11:18:43;8.00;99.90
26947;DHT22;14501;52.282;10.560;2024-02-26T11:21:15;8.10;99.90
26947;DHT22;14501;52.282;10.560;2024-02-26T11:23:40;8.30;99.90
26947;DHT22;14501;52.282;10.560;2024-02-26T11:26:07;8.30;99.90
26947;DHT22;14501;52.282;10.560;2024-02-26T11:28:34;8.40;99.90
26947;DHT22;14501;52.282;10.560;2024-02-26T11:31:01;8.30;99.90
26947;DHT22;14501;52.282;10.560;2024-02-26T11:33:27;8.50;99.90
26947;DHT22;14501;52.282;10.560;2024-02-26T11:35:54;8.40;99.90
26947;DHT22;14501;52.282;10.560;2024-02-26T11:38:21;8.40;99.90
26947;DHT22;14501;52.282;10.560;2024-02-26T11:43:14;8.20;99.90
26947;DHT22;14501;52.282;10.560;2024-02-26T11:48:19;8.20;99.90
26947;DHT22;14501;52.282;10.560;2024-02-26T11:50:55;8.30;99.90
26947;DHT22;14501;52.282;10.560;2024-02-26T11:56:20;8.40;99.90
26947;DHT22;14501;52.282;10.560;2024-02-26T11:58:56;8.50;99.90
26947;DHT22;14501;52.282;10.560;2024-02-26T12:01:41;8.60;99.90
26947;DHT22;14501;52.282;10.560;2024-02-26T12:04:12;8.50;99.90
26947;DHT22;14501;52.282;10.560;2024-02-26T12:06:46;8.50;99.90
26947;DHT22;14501;52.282;10.560;2024-02-26T12:09:12;8.50;99.90
26947;DHT22;14501;52.282;10.560;2024-02-26T12:11:39;8.50;99.90
26947;DHT22;14501;52.282;10.560;2024-02-26T12:14:07;8.60;99.90
26947;DHT22;14501;52.282;10.560;2024-02-26T12:16:40;8.60;99.90
26947;DHT22;14501;52.282;10.560;2024-02-26T12:19:10;8.60;99.90
26947;DHT22;14501;52.282;10.560;2024-02-26T12:21:37;8.60;99.90
26947;DHT22;14501;52.282;10.560;2024-02-26T12:24:15;8.70;99.90
26947;DHT22;14501;52.282;10.560;2024-02-26T12:26:42;8.70;99.90
26947;DHT22;14501;52.282;10.560;2024-02-26T12:29:08;8.80;99.90
26947;DHT22;14501;52.282;10.560;2024-02-26T12:31:34;8.90;99.90
26947;DHT22;14501;52.282;10.560;2024-02-26T12:34:03;8.90;99.90
26947;DHT22;14501;52.282;10.560;2024-02-26T12:36:29;8.90;99.90
26947;DHT22;14501;52.282;10.560;2024-02-26T12:38:55;9.00;99.90
26947;DHT22;14501;52.282;10.560;2024-02-26T12:41:22;9.00;99.90
26947;DHT22;14501;52.282;10.560;2024-02-26T12:43:50;9.00;99.90
26947;DHT22;14501;52.282;10.560;2024-02-26T12:46:20;8.90;99.90
26947;DHT22;14501;52.282;10.560;2024-02-26T12:48:46;8.90;99.90
26947;DHT22;14501;52.282;10.560;2024-02-26T12:51:14;8.70;99.90
26947;DHT22;14501;52.282;10.560;2024-02-26T12:53:41;8.70;99.90
26947;DHT22;14501;52.282;10.560;2024-02-26T12:56:10;8.70;99.90
26947;DHT22;14501;52.282;10.560;2024-02-26T12:58:39;8.70;99.90
26947;DHT22;14501;52.282;10.560;2024-02-26T13:01:05;8.80;99.90
26947;DHT22;14501;52.282;10.560;2024-02-26T13:03:33;9.00;99.90
26947;DHT22;14501;52.282;10.560;2024-02-26T13:05:59;9.00;99.90
26947;DHT22;14501;52.282;10.560;2024-02-26T13:08:26;9.10;99.90
26947;DHT22;14501;52.282;10.560;2024-02-26T13:10:52;9.30;99.90
26947;DHT22;14501;52.282;10.560;2024-02-26T13:13:18;9.30;99.90
26947;DHT22;14501;52.282;10.560;2024-02-26T13:15:45;9.30;99.90
26947;DHT22;14501;52.282;10.560;2024-02-26T13:18:13;9.30;99.90
26947;DHT22;14501;52.282;10.560;2024-02-26T13:20:40;9.30;99.90
26947;DHT22;14501;52.282;10.560;2024-02-26T13:23:07;9.30;99.90
26947;DHT22;14501;52.282;10.560;2024-02-26T13:25:33;9.30;99.90
26947;DHT22;14501;52.282;10.560;2024-02-26T13:28:16;9.40;99.90
26947;DHT22;14501;52.282;10.560;2024-02-26T13:30:49;9.30;99.90
26947;DHT22;14501;52.282;10.560;2024-02-26T13:33:15;9.40;99.90
26947;DHT22;14501;52.282;10.560;2024-02-26T13:35:41;9.40;99.90
26947;DHT22;14501;52.282;10.560;2024-02-26T13:38:07;9.40;99.90
26947;DHT22;14501;52.282;10.560;2024-02-26T13:40:33;9.50;99.90
26947;DHT22;14501;52.282;10.560;2024-02-26T13:43:00;9.70;99.90
26947;DHT22;14501;52.282;10.560;2024-02-26T13:45:26;9.70;99.90
26947;DHT22;14501;52.282;10.560;2024-02-26T13:47:51;9.70;99.90
26947;DHT22;14501;52.282;10.560;2024-02-26T13:50:17;9.60;99.90
26947;DHT22;14501;52.282;10.560;2024-02-26T13:52:47;9.60;99.90
26947;DHT22;14501;52.282;10.560;2024-02-26T13:55:12;9.60;99.90
26947;DHT22;14501;52.282;10.560;2024-02-26T13:57:40;9.60;99.90
26947;DHT22;14501;52.282;10.560;2024-02-26T14:00:06;9.50;99.90
26947;DHT22;14501;52.282;10.560;2024-02-26T14:02:33;9.50;99.90
26947;DHT22;14501;52.282;10.560;2024-02-26T14:05:02;9.60;99.90
26947;DHT22;14501;52.282;10.560;2024-02-26T14:07:29;9.50;99.90
26947;DHT22;14501;52.282;10.560;2024-02-26T14:09:58;9.60;99.90
26947;DHT22;14501;52.282;10.560;2024-02-26T14:12:23;9.70;99.90
26947;DHT22;14501;52.282;10.560;2024-02-26T14:14:49;9.60;99.90
26947;DHT22;14501;52.282;10.560;2024-02-26T14:17:14;9.60;99.90
26947;DHT22;14501;52.282;10.560;2024-02-26T14:19:41;9.50;99.90
26947;DHT22;14501;52.282;10.560;2024-02-26T14:22:12;9.50;99.90
26947;DHT22;14501;52.282;10.560;2024-02-26T14:24:38;9.40;99.90
26947;DHT22;14501;52.282;10.560;2024-02-26T14:27:06;9.40;99.90
26947;DHT22;14501;52.282;10.560;2024-02-26T14:29:33;9.20;99.90
26947;DHT22;14501;52.282;10.560;2024-02-26T14:31:58;9.00;99.90
26947;DHT22;14501;52.282;10.560;2024-02-26T14:34:24;8.90;99.90
26947;DHT22;14501;52.282;10.560;2024-02-26T14:36:50;8.80;99.90
26947;DHT22;14501;52.282;10.560;2024-02-26T14:39:15;8.80;99.90
26947;DHT22;14501;52.282;10.560;2024-02-26T14:41:45;8.80;99.90
26947;DHT22;14501;52.282;10.560;2024-02-26T14:44:15;8.70;99.90
26947;DHT22;14501;52.282;10.560;2024-02-26T14:46:41;8.70;99.90
26947;DHT22;14501;52.282;10.560;2024-02-26T14:49:07;8.70;99.90
26947;DHT22;14501;52.282;10.560;2024-02-26T14:51:33;8.70;99.90
26947;DHT22;14501;52.282;10.560;2024-02-26T14:53:58;8.60;99.90
26947;DHT22;14501;52.282;10.560;2024-02-26T14:56:26;8.70;99.90
26947;DHT22;14501;52.282;10.560;2024-02-26T14:58:51;8.70;99.90
26947;DHT22;14501;52.282;10.560;2024-02-26T15:01:17;8.70;99.90
26947;DHT22;14501;52.282;10.560;2024-02-26T15:03:42;8.60;99.90
26947;DHT22;14501;52.282;10.560;2024-02-26T15:06:09;8.60;99.90
26947;DHT22;14501;52.282;10.560;2024-02-26T15:08:34;8.60;99.90
26947;DHT22;14501;52.282;10.560;2024-02-26T15:11:01;8.50;99.90
26947;DHT22;14501;52.282;10.560;2024-02-26T15:13:26;8.40;99.90
26947;DHT22;14501;52.282;10.560;2024-02-26T15:15:52;8.40;99.90
26947;DHT22;14501;52.282;10.560;2024-02-26T15:18:18;8.40;99.90
26947;DHT22;14501;52.282;10.560;2024-02-26T15:20:44;8.40;99.90
26947;DHT22;14501;52.282;10.560;2024-02-26T15:23:11;8.30;99.90
26947;DHT22;14501;52.282;10.560;2024-02-26T15:25:36;8.30;99.90
26947;DHT22;14501;52.282;10.560;2024-02-26T15:28:02;8.30;99.90
26947;DHT22;14501;52.282;10.560;2024-02-26T15:30:28;8.30;99.90
26947;DHT22;14501;52.282;10.560;2024-02-26T15:32:57;8.40;99.90
26947;DHT22;14501;52.282;10.560;2024-02-26T15:35:23;8.30;99.90
26947;DHT22;14501;52.282;10.560;2024-02-26T15:37:48;8.40;99.90
26947;DHT22;14501;52.282;10.560;2024-02-26T15:40:14;8.40;99.90
26947;DHT22;14501;52.282;10.560;2024-02-26T15:42:41;8.40;99.90
26947;DHT22;14501;52.282;10.560;2024-02-26T15:45:07;8.50;99.90
26947;DHT22;14501;52.282;10.560;2024-02-26T15:47:33;8.50;99.90
26947;DHT22;14501;52.282;10.560;2024-02-26T15:50:00;8.50;99.90
26947;DHT22;14501;52.282;10.560;2024-02-26T15:52:27;8.50;99.90
26947;DHT22;14501;52.282;10.560;2024-02-26T15:54:54;8.40;99.90
26947;DHT22;14501;52.282;10.560;2024-02-26T15:57:19;8.40;99.90
26947;DHT22;14501;52.282;10.560;2024-02-26T15:59:46;8.40;99.90
26947;DHT22;14501;52.282;10.560;2024-02-26T16:02:14;8.40;99.90
26947;DHT22;14501;52.282;10.560;2024-02-26T16:04:40;8.40;99.90
26947;DHT22;14501;52.282;10.560;2024-02-26T16:07:06;8.40;99.90
26947;DHT22;14501;52.282;10.560;2024-02-26T16:09:38;8.40;99.90
26947;DHT22;14501;52.282;10.560;2024-02-26T16:12:25;8.40;99.90
26947;DHT22;14501;52.282;10.560;2024-02-26T16:14:52;8.30;99.90
26947;DHT22;14501;52.282;10.560;2024-02-26T16:17:23;8.30;99.90
26947;DHT22;14501;52.282;10.560;2024-02-26T16:19:50;8.20;99.90
26947;DHT22;14501;52.282;10.560;2024-02-26T16:22:17;8.20;99.90
26947;DHT22;14501;52.282;10.560;2024-02-26T16:24:42;8.10;99.90
26947;DHT22;14501;52.282;10.560;2024-02-26T16:27:08;8.10;99.90
26947;DHT22;14501;52.282;10.560;2024-02-26T16:29:38;8.10;99.90
26947;DHT22;14501;52.282;10.560;2024-02-26T16:32:10;8.10;99.90
26947;DHT22;14501;52.282;10.560;2024-02-26T16:34:35;8.00;99.90
26947;DHT22;14501;52.282;10.560;2024-02-26T16:37:09;8.00;99.90
26947;DHT22;14501;52.282;10.560;2024-02-26T16:39:36;8.00;99.90
26947;DHT22;14501;52.282;10.560;2024-02-26T16:42:12;8.00;99.90
26947;DHT22;14501;52.282;10.560;2024-02-26T16:44:39;7.90;99.90
26947;DHT22;14501;52.282;10.560;2024-02-26T16:47:05;7.90;99.90
26947;DHT22;14501;52.282;10.560;2024-02-26T16:49:31;7.90;99.90
26947;DHT22;14501;52.282;10.560;2024-02-26T16:51:57;7.80;99.90
26947;DHT22;14501;52.282;10.560;2024-02-26T16:54:23;7.80;99.90
26947;DHT22;14501;52.282;10.560;2024-02-26T16:56:49;7.80;99.90
26947;DHT22;14501;52.282;10.560;2024-02-26T16:59:15;7.70;99.90
26947;DHT22;14501;52.282;10.560;2024-02-26T17:01:49;7.70;99.90
26947;DHT22;14501;52.282;10.560;2024-02-26T17:04:15;7.70;99.90
26947;DHT22;14501;52.282;10.560;2024-02-26T17:06:41;7.70;99.90
26947;DHT22;14501;52.282;10.560;2024-02-26T17:09:07;7.70;99.90
26947;DHT22;14501;52.282;10.560;2024-02-26T17:11:34;7.60;99.90